Time;durP1;ratioP1;P1;durP2;ratioP2;P2;SDS_P1;SDS_P2;PMS_P1;PMS_P2;Temp;Humidity;BMP_temperature;BMP_pressure;BME280_temperature;BME280_humidity;BME280_pressure;Samples;Min_cycle;Max_cycle;Signal;HPM_P1;HPM_P2
2023/09/26 00:00:23;;;;;;;23.52;6.88;;;;;;;21.31;80.24;100923.09;5050609;28;20563;-77
2023/09/26 00:02:50;;;;;;;28.75;8.98;;;;;;;21.39;80.04;100931.22;5050428;28;20021;-78
2023/09/26 00:05:18;;;;;;;31.33;9.90;;;;;;;21.36;80.05;100928.84;5050567;28;20025;-77
2023/09/26 00:07:43;;;;;;;28.58;7.78;;;;;;;21.39;80.07;100920.28;5050172;28;20029;-78
2023/09/26 00:10:10;;;;;;;28.17;6.40;;;;;;;21.32;79.99;100921.19;5050499;28;20110;-77
2023/09/26 00:12:36;;;;;;;32.78;7.60;;;;;;;21.26;80.06;100917.31;5050480;28;20025;-77
2023/09/26 00:15:02;;;;;;;22.90;7.30;;;;;;;21.27;80.31;100921.78;5050434;28;20086;-77
2023/09/26 00:17:27;;;;;;;31.98;8.00;;;;;;;21.27;80.46;100919.03;5049945;28;20059;-77
2023/09/26 00:19:53;;;;;;;27.05;7.45;;;;;;;21.32;80.38;100918.47;5050266;28;20052;-79
2023/09/26 00:22:19;;;;;;;35.97;8.20;;;;;;;21.23;80.63;100912.22;5050211;28;20705;-78
2023/09/26 00:24:45;;;;;;;37.55;7.80;;;;;;;21.11;80.78;100897.31;5050003;28;20122;-77
2023/09/26 00:27:11;;;;;;;34.35;8.23;;;;;;;21.15;81.27;100906.84;5050283;28;20408;-77
2023/09/26 00:29:36;;;;;;;30.20;7.70;;;;;;;21.29;81.55;100922.41;5050061;28;20029;-77
2023/09/26 00:32:03;;;;;;;26.35;8.15;;;;;;;21.33;81.07;100931.97;5050139;28;20033;-77
2023/09/26 00:34:28;;;;;;;29.17;7.88;;;;;;;21.17;81.51;100902.03;5050365;28;20025;-77
2023/09/26 00:36:55;;;;;;;24.67;8.05;;;;;;;21.38;81.82;100947.81;5050323;28;20035;-77
2023/09/26 00:39:21;;;;;;;41.65;9.77;;;;;;;21.28;82.12;100931.69;5049802;28;20112;-77
2023/09/26 00:41:46;;;;;;;20.30;8.25;;;;;;;21.43;82.09;100934.44;5049621;28;20057;-78
2023/09/26 00:44:12;;;;;;;30.27;9.48;;;;;;;21.32;82.38;100916.56;5050082;28;20033;-77
2023/09/26 00:46:39;;;;;;;37.22;8.48;;;;;;;21.37;82.30;100930.56;5049634;28;20076;-77
2023/09/26 00:49:06;;;;;;;40.22;8.98;;;;;;;21.37;82.36;100930.56;5049778;28;20493;-78
2023/09/26 00:51:32;;;;;;;32.00;8.80;;;;;;;21.43;82.45;100918.88;5049433;28;20033;-78
2023/09/26 00:53:58;;;;;;;37.13;9.15;;;;;;;21.49;82.58;100934.53;5049976;28;20501;-78
2023/09/26 00:56:24;;;;;;;33.45;8.90;;;;;;;21.33;82.76;100906.47;5049166;28;20052;-78
2023/09/26 00:58:51;;;;;;;32.20;8.95;;;;;;;21.46;83.33;100928.59;5049340;28;20571;-78
2023/09/26 01:01:18;;;;;;;36.90;8.82;;;;;;;21.44;83.55;100931.50;5049970;28;20075;-78
2023/09/26 01:03:45;;;;;;;35.65;10.55;;;;;;;21.34;84.15;100897.25;5049214;28;20025;-78
2023/09/26 01:06:11;;;;;;;33.42;8.85;;;;;;;21.56;84.52;100927.25;5049886;28;20333;-76
2023/09/26 01:08:37;;;;;;;29.75;7.82;;;;;;;21.57;84.52;100928.97;5049498;28;20162;-77
2023/09/26 01:11:03;;;;;;;35.55;9.70;;;;;;;21.59;84.79;100929.59;5049944;28;20030;-76
2023/09/26 01:13:28;;;;;;;32.95;10.25;;;;;;;21.59;84.80;100928.75;5049537;28;20029;-76
2023/09/26 01:15:54;;;;;;;23.60;8.65;;;;;;;21.66;84.70;100937.91;5049115;28;20414;-76
2023/09/26 01:18:23;;;;;;;29.13;8.57;;;;;;;21.59;84.58;100926.88;5049463;28;20098;-78
2023/09/26 01:20:49;;;;;;;31.27;9.07;;;;;;;21.65;84.65;100920.63;5049241;28;20059;-78
2023/09/26 01:23:16;;;;;;;33.63;8.45;;;;;;;21.66;84.79;100930.56;5049228;28;20423;-76
2023/09/26 01:25:42;;;;;;;38.42;8.88;;;;;;;21.67;85.16;100931.41;5049712;28;20036;-77
2023/09/26 01:28:09;;;;;;;38.55;8.65;;;;;;;21.59;85.58;100940.56;5049883;28;20029;-78
2023/09/26 01:30:37;;;;;;;34.22;9.75;;;;;;;21.63;86.10;100932.81;5049438;28;20056;-78
2023/09/26 01:33:04;;;;;;;29.65;8.68;;;;;;;21.61;86.19;100927.56;5049335;28;20025;-77
2023/09/26 01:35:29;;;;;;;45.38;8.93;;;;;;;21.62;86.29;100917.44;5049050;28;20029;-77
2023/09/26 01:37:55;;;;;;;42.17;10.50;;;;;;;21.64;86.36;100929.91;5049040;28;20036;-78
2023/09/26 01:40:20;;;;;;;51.70;9.18;;;;;;;21.64;86.37;100921.69;5049576;28;20671;-77
2023/09/26 01:42:46;;;;;;;33.38;8.52;;;;;;;21.66;85.93;100922.34;5049046;28;20057;-76
2023/09/26 01:45:11;;;;;;;34.22;9.98;;;;;;;21.60;86.28;100917.63;5049214;28;20032;-78
2023/09/26 01:47:42;;;;;;;25.52;8.20;;;;;;;21.67;86.19;100932.28;5048924;28;20025;-78
2023/09/26 01:50:09;;;;;;;27.85;7.63;;;;;;;21.67;85.82;100924.06;5049215;28;20021;-77
2023/09/26 01:52:35;;;;;;;32.88;8.23;;;;;;;21.68;85.89;100928.47;5049130;28;20033;-77
2023/09/26 01:55:06;;;;;;;34.53;9.63;;;;;;;21.66;86.26;100927.81;5049072;28;20036;-78
2023/09/26 01:57:34;;;;;;;29.98;8.35;;;;;;;21.63;85.91;100920.00;5049147;28;20036;-77
2023/09/26 02:00:11;;;;;;;36.92;10.10;;;;;;;21.67;86.03;100932.28;5049268;28;20071;-77
2023/09/26 02:02:57;;;;;;;33.15;8.57;;;;;;;21.67;86.13;100932.28;5048980;28;20055;-77
2023/09/26 02:05:23;;;;;;;29.95;9.15;;;;;;;21.67;86.47;100934.16;5048417;28;20045;-78
2023/09/26 02:07:49;;;;;;;27.50;8.32;;;;;;;21.67;86.43;100942.38;5049000;28;20094;-79
2023/09/26 02:10:16;;;;;;;22.02;8.07;;;;;;;21.67;86.84;100937.75;5052692;28;20027;-77
2023/09/26 02:12:45;;;;;;;34.80;8.85;;;;;;;21.64;86.80;100940.88;5052238;28;20037;-78
2023/09/26 02:15:12;;;;;;;32.88;9.27;;;;;;;21.66;86.84;100944.25;5052518;28;20029;-77
2023/09/26 02:17:39;;;;;;;26.15;8.43;;;;;;;21.55;86.76;100928.31;5052837;28;20436;-78
2023/09/26 02:20:12;;;;;;;41.70;9.35;;;;;;;21.51;86.44;100926.13;5052665;28;20029;-77
2023/09/26 02:22:49;;;;;;;51.53;10.18;;;;;;;21.61;86.42;100948.59;5052547;28;20056;-77
2023/09/26 02:25:15;;;;;;;37.53;9.73;;;;;;;21.52;86.60;100938.78;5018116;28;20487;-77
2023/09/26 02:27:42;;;;;;;27.55;8.23;;;;;;;21.46;86.69;100928.59;5052531;28;20033;-76
2023/09/26 02:30:09;;;;;;;35.03;9.27;;;;;;;21.53;86.66;100952.25;5051897;28;20032;-77
2023/09/26 02:32:35;;;;;;;42.92;8.80;;;;;;;21.52;87.05;100950.59;5052366;28;20120;-78
2023/09/26 02:35:07;;;;;;;38.00;9.25;;;;;;;21.51;86.73;100953.50;5032573;28;20072;-76
2023/09/26 02:37:32;;;;;;;41.67;10.03;;;;;;;21.52;86.64;100949.72;5052306;28;20021;-78
2023/09/26 02:39:58;;;;;;;35.53;9.35;;;;;;;21.50;86.73;100938.09;5051549;28;20028;-76
2023/09/26 02:42:23;;;;;;;32.58;8.05;;;;;;;21.55;86.29;100949.34;5051865;28;20481;-78
2023/09/26 02:44:49;;;;;;;53.20;9.35;;;;;;;21.56;86.07;100951.88;5051877;28;20472;-78
2023/09/26 02:47:14;;;;;;;40.08;9.27;;;;;;;21.52;86.06;100941.53;5051653;28;20040;-77
2023/09/26 02:49:41;;;;;;;37.22;8.93;;;;;;;21.52;85.70;100945.09;5052048;28;20025;-77
2023/09/26 02:52:07;;;;;;;27.25;10.07;;;;;;;21.45;85.56;100933.19;5051684;28;20064;-78
2023/09/26 02:54:33;;;;;;;23.35;9.27;;;;;;;21.53;85.29;100945.94;5051491;28;20501;-78
2023/09/26 02:56:58;;;;;;;36.63;9.13;;;;;;;21.47;84.99;100930.25;5051810;28;20037;-78
2023/09/26 02:59:24;;;;;;;30.48;9.88;;;;;;;21.59;84.75;100951.50;5052014;28;20033;-78
2023/09/26 03:01:50;;;;;;;27.83;8.48;;;;;;;21.62;84.78;100951.13;5052246;28;20523;-77
2023/09/26 03:04:15;;;;;;;26.25;8.05;;;;;;;21.33;84.25;100890.91;5051617;28;20408;-78
2023/09/26 03:06:40;;;;;;;33.78;7.72;;;;;;;21.58;84.55;100947.09;5051499;28;20102;-77
2023/09/26 03:09:07;;;;;;;19.60;7.68;;;;;;;21.56;84.84;100942.81;5051427;28;20442;-78
2023/09/26 03:11:32;;;;;;;30.33;8.55;;;;;;;21.58;84.68;100952.56;5051616;28;20036;-78
2023/09/26 03:13:58;;;;;;;26.45;7.35;;;;;;;21.53;84.93;100957.75;5051640;28;20021;-77
2023/09/26 03:16:24;;;;;;;31.15;7.40;;;;;;;21.58;84.92;100966.25;5051386;28;20429;-78
2023/09/26 03:18:54;;;;;;;39.17;8.20;;;;;;;21.59;84.45;100967.94;5051056;28;20025;-77
2023/09/26 03:21:20;;;;;;;27.02;8.15;;;;;;;21.46;84.26;100945.00;5051039;28;20037;-76
2023/09/26 03:23:45;;;;;;;34.10;9.65;;;;;;;21.60;84.16;100964.16;5051685;28;20369;-78
2023/09/26 03:26:12;;;;;;;38.65;13.52;;;;;;;21.56;84.23;100967.44;5051641;28;20155;-77
2023/09/26 03:28:38;;;;;;;24.25;8.90;;;;;;;21.37;84.05;100933.31;5051228;28;20056;-77
2023/09/26 03:31:04;;;;;;;25.38;8.15;;;;;;;21.53;84.20;100971.44;5050921;28;20056;-77
2023/09/26 03:33:29;;;;;;;31.60;7.22;;;;;;;21.52;84.43;100977.97;5050963;28;20706;-77
2023/09/26 03:35:57;;;;;;;35.15;9.07;;;;;;;21.04;84.66;100908.09;5051478;28;20025;-78
2023/09/26 03:38:23;;;;;;;26.92;8.43;;;;;;;21.43;84.33;100970.00;4999529;28;20036;-77
2023/09/26 03:40:55;;;;;;;59.17;11.18;;;;;;;21.39;83.87;100965.94;5050843;28;20029;-78
2023/09/26 03:43:20;;;;;;;44.78;9.27;;;;;;;21.50;83.96;100987.38;5034084;28;20432;-78
2023/09/26 03:45:46;;;;;;;27.80;8.05;;;;;;;20.93;84.16;100889.41;5051131;28;20047;-78
2023/09/26 03:48:11;;;;;;;26.95;8.32;;;;;;;21.43;84.05;100983.69;5033012;28;20037;-78
2023/09/26 03:50:37;;;;;;;52.78;8.75;;;;;;;21.23;84.35;100950.53;5051644;28;20029;-77
2023/09/26 03:53:02;;;;;;;45.80;10.27;;;;;;;21.35;84.44;100975.53;5050267;28;20064;-77
2023/09/26 03:55:28;;;;;;;32.35;8.98;;;;;;;21.34;84.66;100985.66;5050469;28;20477;-78
2023/09/26 03:57:53;;;;;;;33.35;7.90;;;;;;;21.37;84.89;100996.25;5050773;28;20413;-77
2023/09/26 04:00:25;;;;;;;46.20;9.77;;;;;;;21.29;85.00;100982.63;5050515;28;20512;-79
2023/09/26 04:02:51;;;;;;;49.13;10.45;;;;;;;21.34;85.17;101002.09;5050165;28;20036;-77
2023/09/26 04:05:16;;;;;;;46.17;10.52;;;;;;;21.26;85.44;100982.13;5050265;28;20451;-77
2023/09/26 04:07:42;;;;;;;35.17;11.45;;;;;;;21.38;85.17;101006.13;5050165;28;20033;-78
2023/09/26 04:10:08;;;;;;;39.75;9.13;;;;;;;21.40;85.19;101001.34;5050783;28;20045;-76
2023/09/26 04:12:34;;;;;;;31.90;7.90;;;;;;;21.45;84.91;100987.94;5050474;28;20033;-78
2023/09/26 04:14:59;;;;;;;45.33;8.40;;;;;;;21.45;84.64;101000.78;5050840;28;20082;-79
2023/09/26 04:17:27;;;;;;;44.30;10.45;;;;;;;21.29;84.87;100971.69;5049975;28;20025;-80
2023/09/26 04:19:52;;;;;;;54.78;9.70;;;;;;;21.51;84.64;101008.22;5050006;28;20029;-80
2023/09/26 04:22:18;;;;;;;46.13;11.55;;;;;;;21.55;84.54;101006.84;5050273;28;20055;-77
2023/09/26 04:24:43;;;;;;;28.08;9.02;;;;;;;21.48;84.49;100993.03;5049666;28;20053;-78
2023/09/26 04:27:08;;;;;;;32.22;9.25;;;;;;;21.52;84.86;100997.13;5033016;28;20036;-80
2023/09/26 04:29:34;;;;;;;53.50;9.80;;;;;;;21.62;84.71;101011.34;5050101;28;20025;-79
2023/09/26 04:31:59;;;;;;;42.45;8.80;;;;;;;21.65;84.76;101015.59;5067036;28;20040;-78
2023/09/26 04:34:27;;;;;;;37.50;7.97;;;;;;;21.45;85.06;100979.72;5069601;28;20481;-78
2023/09/26 04:36:53;;;;;;;31.05;8.98;;;;;;;21.63;85.12;101007.59;5070458;28;20037;-78
2023/09/26 04:39:18;;;;;;;46.10;9.80;;;;;;;21.65;85.33;101013.72;5069604;28;20032;-77
2023/09/26 04:41:45;;;;;;;33.40;8.95;;;;;;;21.75;85.30;101018.06;5070201;28;20052;-78
2023/09/26 04:44:11;;;;;;;33.28;8.20;;;;;;;21.77;85.17;101005.91;5053088;28;20082;-78
2023/09/26 04:46:36;;;;;;;46.10;10.48;;;;;;;21.88;85.35;101021.91;5055203;28;20033;-78
2023/09/26 04:49:01;;;;;;;40.00;10.07;;;;;;;21.70;85.19;100986.66;5031367;28;20416;-77
2023/09/26 04:51:27;;;;;;;45.53;8.60;;;;;;;21.98;85.13;101027.09;5049386;28;20485;-78
2023/09/26 04:53:53;;;;;;;40.33;9.40;;;;;;;21.98;85.16;101010.66;5014477;28;20037;-78
2023/09/26 04:56:18;;;;;;;44.65;9.75;;;;;;;22.01;85.33;101018.50;5049939;28;20386;-79
2023/09/26 04:58:44;;;;;;;29.23;8.30;;;;;;;22.12;85.14;101023.50;5049456;28;20039;-80
2023/09/26 05:01:14;;;;;;;27.45;8.52;;;;;;;22.16;85.22;101020.19;5048551;28;20454;-79
2023/09/26 05:03:44;;;;;;;42.55;9.45;;;;;;;21.79;84.69;100940.00;5048574;28;20108;-80
2023/09/26 05:06:09;;;;;;;35.63;10.35;;;;;;;22.34;84.79;101022.53;5049478;28;20032;-79
2023/09/26 05:08:36;;;;;;;37.83;9.95;;;;;;;22.30;84.37;101018.47;5051645;28;20025;-81
2023/09/26 05:11:01;;;;;;;36.92;8.43;;;;;;;22.23;84.04;100992.91;5050347;28;20466;-80
2023/09/26 05:13:27;;;;;;;45.08;10.40;;;;;;;22.43;84.31;101004.94;5050087;28;20032;-81
2023/09/26 05:15:52;;;;;;;47.50;9.98;;;;;;;22.57;83.69;101017.75;5049660;28;20025;-78
2023/09/26 05:18:18;;;;;;;38.60;9.75;;;;;;;22.51;83.31;100976.53;5049556;28;20025;-79
2023/09/26 05:20:44;;;;;;;38.53;8.98;;;;;;;22.74;83.37;101013.78;5049753;28;20108;-79
2023/09/26 05:23:09;;;;;;;45.88;11.82;;;;;;;22.81;83.41;101018.47;5049699;28;20146;-79
2023/09/26 05:25:35;;;;;;;32.05;8.18;;;;;;;22.76;82.82;100995.22;5055874;28;20025;-79
2023/09/26 05:28:01;;;;;;;34.03;11.02;;;;;;;22.94;82.55;101015.84;5071016;28;20021;-78
2023/09/26 05:30:26;;;;;;;33.22;8.88;;;;;;;23.04;81.72;101024.63;5072040;28;20035;-79
2023/09/26 05:32:52;;;;;;;29.77;8.40;;;;;;;22.92;80.84;100999.59;5073434;28;20025;-80
2023/09/26 05:35:18;;;;;;;25.80;7.82;;;;;;;23.11;80.79;101020.91;5063747;28;20545;-80
2023/09/26 05:37:44;;;;;;;32.67;8.38;;;;;;;23.21;80.06;101026.03;5031045;28;20041;-79
2023/09/26 05:40:10;;;;;;;35.28;9.38;;;;;;;23.19;80.12;101026.25;5031642;28;20028;-79
2023/09/26 05:42:38;;;;;;;61.13;11.73;;;;;;;23.09;79.51;101000.16;5050071;28;20528;-79
2023/09/26 05:45:05;;;;;;;67.80;9.90;;;;;;;23.31;78.46;101034.78;5053239;28;20405;-80
2023/09/26 05:47:30;;;;;;;51.42;9.43;;;;;;;23.40;77.56;101036.38;5054022;28;20025;-78
2023/09/26 05:49:56;;;;;;;45.17;9.98;;;;;;;23.28;77.65;101005.00;5053343;28;20051;-80
2023/09/26 05:52:22;;;;;;;59.63;9.82;;;;;;;23.46;77.71;101030.09;5053180;28;20033;-80
2023/09/26 05:54:47;;;;;;;54.88;8.98;;;;;;;23.57;77.78;101035.06;5053166;28;20092;-81
2023/09/26 05:57:14;;;;;;;36.45;8.32;;;;;;;23.54;77.86;101015.38;5052945;28;20112;-79
2023/09/26 05:59:39;;;;;;;41.22;9.30;;;;;;;23.68;77.79;101031.75;5053214;28;20025;-79
2023/09/26 06:02:07;;;;;;;49.50;9.57;;;;;;;23.74;77.38;101035.59;5052474;28;20064;-81
2023/09/26 06:04:32;;;;;;;33.40;7.60;;;;;;;23.77;77.11;101033.31;5052674;28;20111;-80
2023/09/26 06:06:58;;;;;;;44.13;10.55;;;;;;;23.83;77.05;101032.50;5053218;28;20043;-79
2023/09/26 06:09:23;;;;;;;22.50;7.10;;;;;;;23.88;76.77;101033.81;5052927;28;20059;-79
2023/09/26 06:11:48;;;;;;;37.78;8.75;;;;;;;23.92;76.41;101019.44;5052746;28;20024;-81
2023/09/26 06:14:14;;;;;;;34.65;8.13;;;;;;;23.99;75.71;101031.34;5052643;28;20025;-79
2023/09/26 06:16:39;;;;;;;43.35;8.85;;;;;;;24.07;75.54;101039.41;5052827;28;20036;-81
2023/09/26 06:19:05;;;;;;;29.55;7.32;;;;;;;24.10;75.85;101033.50;5052298;28;20477;-80
2023/09/26 06:21:31;;;;;;;41.50;8.38;;;;;;;24.11;75.51;101034.38;5053131;28;20420;-80
2023/09/26 06:23:56;;;;;;;34.05;8.73;;;;;;;24.02;75.42;101008.09;5052542;28;20025;-80
2023/09/26 06:26:22;;;;;;;30.05;7.50;;;;;;;24.16;75.35;101029.97;5052816;28;20031;-79
2023/09/26 06:28:48;;;;;;;38.55;9.07;;;;;;;24.22;75.29;101037.41;5052414;28;20028;-79
2023/09/26 06:31:14;;;;;;;46.60;7.53;;;;;;;24.31;74.14;101047.19;5052884;28;20033;-78
2023/09/26 06:33:39;;;;;;;31.05;8.98;;;;;;;24.37;74.19;101045.53;5052728;28;20025;-79
2023/09/26 06:36:12;;;;;;;34.97;8.02;;;;;;;24.45;74.09;101033.50;5052892;28;20025;-78
2023/09/26 06:38:38;;;;;;;25.23;7.13;;;;;;;24.47;73.56;101036.88;5034092;28;20086;-80
2023/09/26 06:41:07;;;;;;;29.50;6.75;;;;;;;24.63;72.76;101040.13;5052207;28;20033;-80
2023/09/26 06:43:33;;;;;;;28.00;7.38;;;;;;;24.55;72.44;101036.72;5052255;28;20086;-79
2023/09/26 06:46:06;;;;;;;30.05;7.20;;;;;;;24.70;72.33;101031.91;5052075;28;20123;-78
2023/09/26 06:48:34;;;;;;;37.97;7.68;;;;;;;24.66;72.11;101014.97;5052352;28;20036;-80
2023/09/26 06:51:01;;;;;;;33.45;7.10;;;;;;;24.84;69.97;101028.16;5051789;28;20029;-78
2023/09/26 06:53:26;;;;;;;32.78;7.30;;;;;;;24.86;68.57;101029.63;5052450;28;20515;-79
2023/09/26 06:56:02;;;;;;;101.43;10.98;;;;;;;24.94;66.53;101022.25;5050564;28;20021;-79
2023/09/26 06:58:28;;;;;;;36.35;7.78;;;;;;;25.08;65.23;101022.06;5051694;28;20031;-79
2023/09/26 07:00:53;;;;;;;67.70;7.22;;;;;;;25.10;64.83;101024.63;5052182;28;20033;-81
2023/09/26 07:03:19;;;;;;;38.08;7.75;;;;;;;25.03;64.55;101008.09;5051530;28;20087;-79
2023/09/26 07:05:44;;;;;;;49.67;7.43;;;;;;;25.14;62.64;101036.88;5052146;28;20029;-79
2023/09/26 07:08:12;;;;;;;40.38;7.60;;;;;;;25.04;62.55;101000.69;5052158;28;20021;-79
2023/09/26 07:10:38;;;;;;;31.38;7.32;;;;;;;25.18;62.01;101005.13;5051797;28;20024;-80
2023/09/26 07:13:04;;;;;;;34.60;8.15;;;;;;;25.33;61.27;101014.03;5052285;28;20025;-80
2023/09/26 07:15:31;;;;;;;46.35;8.48;;;;;;;25.52;60.68;101051.78;5052522;28;20033;-79
2023/09/26 07:17:58;;;;;;;59.60;11.27;;;;;;;25.60;60.24;101045.19;5051601;28;20067;-80
2023/09/26 07:20:24;;;;;;;35.38;7.43;;;;;;;25.45;60.69;100999.41;5051253;28;20554;-78
2023/09/26 07:22:50;;;;;;;49.15;8.30;;;;;;;25.74;60.82;101045.00;5051727;28;20025;-79
2023/09/26 07:25:15;;;;;;;37.78;6.65;;;;;;;25.84;59.75;101055.59;5050868;28;20114;-80
2023/09/26 07:27:41;;;;;;;34.80;7.03;;;;;;;25.86;60.00;101042.44;5051280;28;20090;-79
2023/09/26 07:30:09;;;;;;;40.92;8.73;;;;;;;25.99;59.21;101054.28;5051156;28;20029;-79
2023/09/26 07:32:34;;;;;;;39.70;6.10;;;;;;;26.02;58.17;101057.69;5050703;28;20028;-81
2023/09/26 07:35:00;;;;;;;43.80;6.82;;;;;;;26.10;57.91;101054.69;5049976;28;20022;-80
2023/09/26 07:37:25;;;;;;;33.13;7.05;;;;;;;25.99;57.21;101058.97;5049830;28;20400;-81
2023/09/26 07:39:51;;;;;;;39.80;5.95;;;;;;;25.99;56.87;101051.50;5050600;28;20040;-79
2023/09/26 07:42:20;;;;;;;38.90;7.05;;;;;;;26.21;55.15;101065.94;5046296;28;20103;-79
2023/09/26 07:44:46;;;;;;;29.17;7.35;;;;;;;26.20;54.39;101075.28;5030738;28;20415;-81
2023/09/26 07:47:12;;;;;;;21.05;5.50;;;;;;;26.19;52.34;101061.69;5031034;28;20034;-81
2023/09/26 07:49:40;;;;;;;46.97;7.85;;;;;;;26.28;53.02;101068.66;5029721;28;20052;-81
2023/09/26 07:52:05;;;;;;;36.60;7.03;;;;;;;26.31;53.56;101057.19;5030678;28;20492;-79
2023/09/26 07:54:32;;;;;;;38.10;6.22;;;;;;;26.50;52.35;101075.59;5029879;28;20033;-81
2023/09/26 07:56:57;;;;;;;34.47;7.03;;;;;;;26.52;51.88;101077.06;5031416;28;20391;-79
2023/09/26 07:59:23;;;;;;;29.60;5.80;;;;;;;26.58;51.58;101061.56;5031262;28;20030;-80
2023/09/26 08:01:48;;;;;;;33.65;7.28;;;;;;;26.64;50.82;101060.69;5030890;28;20029;-80
2023/09/26 08:04:14;;;;;;;64.47;8.45;;;;;;;26.74;51.10;101058.31;5029960;28;20556;-80
2023/09/26 08:06:39;;;;;;;28.15;5.05;;;;;;;26.65;50.96;101037.53;5030683;28;20025;-80
2023/09/26 08:09:05;;;;;;;35.75;6.38;;;;;;;26.90;50.85;101062.50;5030379;28;20021;-79
2023/09/26 08:11:30;;;;;;;45.70;9.05;;;;;;;26.89;50.06;101036.81;5030870;28;20053;-81
2023/09/26 08:13:56;;;;;;;39.47;7.82;;;;;;;27.15;49.06;101065.31;5030470;28;20033;-80
2023/09/26 08:16:22;;;;;;;86.72;13.90;;;;;;;27.19;49.40;101056.34;5030350;28;20037;-79
2023/09/26 08:18:51;;;;;;;33.50;5.80;;;;;;;27.21;49.69;101059.75;5030210;28;20021;-80
2023/09/26 08:21:17;;;;;;;29.92;6.35;;;;;;;27.28;49.27;101043.13;5030155;28;20508;-80
2023/09/26 08:23:43;;;;;;;34.45;6.97;;;;;;;27.14;50.17;101022.19;5030057;28;20030;-79
2023/09/26 08:26:12;;;;;;;38.28;6.68;;;;;;;27.33;50.35;101046.94;5030479;28;20091;-80
2023/09/26 08:28:41;;;;;;;53.17;7.32;;;;;;;27.46;52.10;101034.97;5030031;28;20064;-80
2023/09/26 08:31:13;;;;;;;22.10;6.28;;;;;;;27.67;52.08;101059.44;5030406;28;20576;-80
2023/09/26 08:33:39;;;;;;;66.18;8.85;;;;;;;27.60;52.65;101017.19;5030413;28;20087;-79
2023/09/26 08:36:18;;;;;;;32.75;7.35;;;;;;;27.81;53.15;101049.94;5030072;28;20057;-79
2023/09/26 08:38:44;;;;;;;31.58;6.18;;;;;;;27.74;53.01;101065.72;5030486;28;20033;-80
2023/09/26 08:41:10;;;;;;;41.67;6.47;;;;;;;27.67;53.50;101053.06;5031665;28;20389;-79
2023/09/26 08:43:36;;;;;;;54.75;8.57;;;;;;;27.74;54.23;101048.28;5049879;28;20063;-81
2023/09/26 08:46:04;;;;;;;38.83;7.53;;;;;;;27.67;55.34;101064.09;5049642;28;20660;-79
2023/09/26 08:48:30;;;;;;;44.28;8.45;;;;;;;27.72;55.59;101061.50;5049357;28;20025;-79
2023/09/26 08:50:55;;;;;;;53.17;8.35;;;;;;;27.70;55.97;101049.84;5049990;28;20033;-80
2023/09/26 08:53:21;;;;;;;30.60;6.38;;;;;;;27.79;56.29;101052.09;5051324;28;20505;-79
2023/09/26 08:55:48;;;;;;;43.38;7.13;;;;;;;27.91;54.83;101047.50;5049933;28;20036;-78
2023/09/26 08:58:16;;;;;;;51.67;7.70;;;;;;;27.88;54.37;101045.19;5049900;28;20060;-79
2023/09/26 09:00:43;;;;;;;31.17;5.70;;;;;;;27.87;54.83;101065.59;5049579;28;20064;-79
2023/09/26 09:03:09;;;;;;;34.00;6.50;;;;;;;27.86;55.29;101046.47;5049638;28;20104;-79
2023/09/26 09:05:34;;;;;;;27.45;6.65;;;;;;;27.86;55.48;101058.38;5049434;28;20813;-79
2023/09/26 09:08:00;;;;;;;94.93;10.27;;;;;;;27.83;54.95;101047.78;5049562;28;20525;-79
2023/09/26 09:10:25;;;;;;;37.22;7.90;;;;;;;27.87;55.00;101060.09;5049677;28;20029;-80
2023/09/26 09:13:01;;;;;;;40.97;7.57;;;;;;;27.90;55.27;101064.31;5049489;28;20039;-79
2023/09/26 09:15:28;;;;;;;34.15;6.35;;;;;;;28.02;55.77;101062.47;5049069;28;20032;-79
2023/09/26 09:17:54;;;;;;;28.85;5.70;;;;;;;28.02;55.46;101063.34;5048518;28;20029;-79
2023/09/26 09:20:33;;;;;;;30.90;6.68;;;;;;;27.98;54.75;101064.03;5049156;28;20033;-79
2023/09/26 09:23:08;;;;;;;32.50;6.78;;;;;;;27.95;54.66;101062.53;5049197;28;20114;-81
2023/09/26 09:25:37;;;;;;;48.83;7.35;;;;;;;27.89;54.35;101060.69;5049703;28;20037;-80
2023/09/26 09:28:06;;;;;;;34.90;5.95;;;;;;;27.75;54.19;101067.44;5031850;28;20414;-79
2023/09/26 09:30:44;;;;;;;38.35;6.32;;;;;;;27.66;54.05;101035.63;5013434;28;20044;-79
2023/09/26 09:33:09;;;;;;;31.33;7.40;;;;;;;27.83;53.88;101060.75;5049596;28;20064;-79
2023/09/26 09:35:37;;;;;;;85.10;7.50;;;;;;;27.77;53.34;101075.47;5049639;28;20048;-79
2023/09/26 09:38:04;;;;;;;32.38;6.00;;;;;;;27.90;53.58;101078.13;5049611;28;20025;-80
2023/09/26 09:40:31;;;;;;;26.95;5.97;;;;;;;27.92;52.82;101078.78;5049220;28;20110;-80
2023/09/26 09:42:56;;;;;;;42.78;6.68;;;;;;;27.68;53.01;101047.28;5049311;28;20045;-79
2023/09/26 09:45:22;;;;;;;65.03;7.88;;;;;;;27.84;52.10;101082.66;5049234;28;20696;-80
2023/09/26 09:47:48;;;;;;;21.55;5.75;;;;;;;27.86;51.42;101072.22;5049218;28;20033;-79
2023/09/26 09:50:15;;;;;;;46.20;6.72;;;;;;;27.89;51.85;101073.66;5049080;28;20186;-80
2023/09/26 09:52:48;;;;;;;37.85;6.68;;;;;;;27.76;52.33;101044.25;5048925;28;20111;-80
2023/09/26 09:55:29;;;;;;;41.22;7.40;;;;;;;27.96;52.85;101071.69;5049497;28;20392;-80
2023/09/26 09:57:57;;;;;;;32.58;5.07;;;;;;;28.03;52.27;101078.00;5049223;28;20036;-79
2023/09/26 10:00:26;;;;;;;57.10;7.53;;;;;;;27.97;49.26;101079.78;5048778;28;20386;-79
2023/09/26 10:02:52;;;;;;;30.75;5.40;;;;;;;27.80;49.12;101070.34;5049123;28;20412;-79
2023/09/26 10:05:19;;;;;;;49.30;6.18;;;;;;;27.96;49.70;101085.50;5048767;28;20029;-79
2023/09/26 10:07:48;;;;;;;30.65;5.80;;;;;;;27.91;49.36;101071.53;5048607;28;20028;-80
2023/09/26 10:10:16;;;;;;;44.80;8.25;;;;;;;27.75;48.76;101061.03;5049211;28;20032;-79
2023/09/26 10:12:43;;;;;;;52.53;6.78;;;;;;;27.78;49.15;101052.31;5049107;28;20495;-81
2023/09/26 10:15:13;;;;;;;38.53;6.38;;;;;;;27.82;49.62;101046.09;5048847;28;20028;-79
2023/09/26 10:17:45;;;;;;;40.58;7.25;;;;;;;27.92;50.26;101056.66;5013184;28;20051;-79
2023/09/26 10:20:12;;;;;;;25.42;6.32;;;;;;;27.91;49.34;101043.88;5048909;28;20025;-79
2023/09/26 10:22:41;;;;;;;19.42;4.80;;;;;;;27.85;49.16;101031.81;5031348;28;20047;-79
2023/09/26 10:25:12;;;;;;;66.63;7.90;;;;;;;28.14;48.27;101071.75;4997538;28;20049;-80
2023/09/26 10:27:43;;;;;;;34.38;5.15;;;;;;;28.23;47.70;101075.06;5049632;28;20029;-81
2023/09/26 10:30:12;;;;;;;35.72;5.95;;;;;;;28.24;48.52;101077.59;5051046;28;20057;-79
2023/09/26 10:32:41;;;;;;;47.22;7.13;;;;;;;28.29;47.98;101072.22;5052389;28;20025;-78
2023/09/26 10:35:28;;;;;;;33.65;6.00;;;;;;;28.43;47.46;101056.31;5051956;28;20033;-79
2023/09/26 10:38:22;;;;;;;34.75;6.45;;;;;;;28.60;45.96;101071.22;5052074;28;20369;-79
2023/09/26 10:40:48;;;;;;;37.17;5.35;;;;;;;28.70;44.39;101067.94;5052432;28;20036;-79
2023/09/26 10:43:15;;;;;;;57.03;6.95;;;;;;;28.85;44.30;101073.91;5053250;28;20123;-81
2023/09/26 10:45:45;;;;;;;51.72;6.28;;;;;;;28.96;43.96;101062.88;5052982;28;20087;-79
2023/09/26 10:48:17;;;;;;;32.67;4.88;;;;;;;28.54;44.15;101008.47;5052231;28;20025;-79
2023/09/26 10:50:42;;;;;;;;;;;;;;;29.10;43.63;101061.63;5053067;28;20140;-79
2023/09/26 10:53:08;;;;;;;25.67;4.85;;;;;;;28.84;43.00;101067.50;5052142;28;20352;-79
2023/09/26 10:55:33;;;;;;;23.85;5.78;;;;;;;28.49;43.32;101019.41;5051995;28;20028;-79
2023/09/26 10:57:59;;;;;;;29.45;6.25;;;;;;;28.62;42.77;101046.94;5051463;28;20452;-80
2023/09/26 11:00:25;;;;;;;25.88;5.60;;;;;;;28.71;41.99;101048.34;5050753;28;20044;-79
2023/09/26 11:02:50;;;;;;;33.17;4.93;;;;;;;28.84;42.45;101053.66;5052164;28;20091;-79
2023/09/26 11:05:16;;;;;;;54.38;6.50;;;;;;;28.62;42.88;101058.00;5051534;28;20503;-80
2023/09/26 11:07:44;;;;;;;27.55;5.53;;;;;;;28.57;43.10;101064.22;5051910;28;20032;-80
2023/09/26 11:10:14;;;;;;;31.00;6.25;;;;;;;28.59;42.83;101042.69;5051383;28;20040;-79
2023/09/26 11:12:40;;;;;;;29.33;4.68;;;;;;;28.54;41.87;101039.78;5051518;28;20473;-80
2023/09/26 11:15:07;;;;;;;36.97;5.88;;;;;;;28.68;40.73;101057.09;5051401;28;20036;-79